Time;durP1;ratioP1;P1;durP2;ratioP2;P2;SDS_P1;SDS_P2;PMS_P1;PMS_P2;Temp;Humidity;BMP_temperature;BMP_pressure;BME280_temperature;BME280_humidity;BME280_pressure;Samples;Min_cycle;Max_cycle;Signal;HPM_P1;HPM_P2
2022/05/24 00:02:00;;;;;;;2.35;1.40;;;;;;;;;;7333213;19;153507;-17
2022/05/24 00:04:32;;;;;;;2.95;1.52;;;;;;;;;;7332568;19;161980;-17
2022/05/24 00:07:04;;;;;;;1.57;1.40;;;;;;;;;;7332578;19;162584;-16
2022/05/24 00:09:38;;;;;;;3.15;1.55;;;;;;;;;;7332789;19;153970;-17
2022/05/24 00:12:10;;;;;;;1.85;1.02;;;;;;;;;;7331772;19;153629;-17
2022/05/24 00:17:25;;;;;;;1.17;0.75;;;;;;;;;;7332318;19;162444;-17
2022/05/24 00:19:57;;;;;;;0.88;0.88;;;;;;;;;;7332785;19;154460;-17
2022/05/24 00:22:28;;;;;;;3.10;1.00;;;;;;;;;;7332699;19;153968;-18
2022/05/24 00:25:06;;;;;;;4.57;1.40;;;;;;;;;;7332176;19;161944;-17
2022/05/24 00:27:38;;;;;;;2.50;1.20;;;;;;;;;;7331005;19;162618;-17
2022/05/24 00:30:11;;;;;;;1.38;1.00;;;;;;;;;;7332213;19;154312;-17
2022/05/24 00:32:42;;;;;;;1.75;0.90;;;;;;;;;;7332280;19;153590;-17
2022/05/24 00:35:13;;;;;;;1.13;1.02;;;;;;;;;;7329895;19;162093;-17
2022/05/24 00:37:46;;;;;;;3.57;1.77;;;;;;;;;;7331716;19;162525;-16
2022/05/24 00:40:29;;;;;;;2.20;1.10;;;;;;;;;;7333940;19;154164;-17
2022/05/24 00:43:01;;;;;;;1.23;1.00;;;;;;;;;;7332107;19;153586;-17
2022/05/24 00:45:36;;;;;;;1.30;0.90;;;;;;;;;;7331708;19;162006;-17
2022/05/24 00:48:11;;;;;;;2.15;0.95;;;;;;;;;;7330489;19;162666;-16
2022/05/24 00:50:49;;;;;;;2.25;1.00;;;;;;;;;;7331994;19;154036;-17
2022/05/24 00:53:24;;;;;;;2.22;1.17;;;;;;;;;;7331789;19;153581;-16
2022/05/24 00:56:05;;;;;;;2.17;1.15;;;;;;;;;;7327413;19;162097;-17
2022/05/24 00:58:43;;;;;;;1.73;0.98;;;;;;;;;;7328453;19;162431;-17
2022/05/24 01:01:31;;;;;;;1.85;1.05;;;;;;;;;;7331322;19;154034;-17
2022/05/24 01:04:02;;;;;;;2.28;0.93;;;;;;;;;;7331210;19;153600;-16
2022/05/24 01:06:34;;;;;;;1.80;1.10;;;;;;;;;;7331124;19;162114;-17
2022/05/24 01:09:09;;;;;;;1.00;0.90;;;;;;;;;;7331110;19;162617;-17
2022/05/24 01:11:45;;;;;;;1.27;1.17;;;;;;;;;;7328527;19;154044;-17
2022/05/24 01:14:20;;;;;;;1.10;0.90;;;;;;;;;;7330715;19;153801;-16
2022/05/24 01:16:55;;;;;;;1.75;1.10;;;;;;;;;;7329365;19;162053;-17
2022/05/24 01:19:36;;;;;;;1.95;1.33;;;;;;;;;;7334184;19;162353;-17
2022/05/24 01:22:27;;;;;;;1.92;1.15;;;;;;;;;;7331106;19;154374;-17
2022/05/24 01:25:04;;;;;;;1.83;1.00;;;;;;;;;;7331011;19;153534;-17
2022/05/24 01:27:39;;;;;;;0.98;0.73;;;;;;;;;;7330619;19;161758;-17
2022/05/24 01:30:13;;;;;;;1.83;1.25;;;;;;;;;;7330498;19;162409;-17
2022/05/24 01:38:16;;;;;;;1.85;0.90;;;;;;;;;;7330320;19;161970;-17
2022/05/24 01:40:49;;;;;;;1.02;1.00;;;;;;;;;;7330141;19;162609;-17
2022/05/24 01:43:26;;;;;;;3.05;1.20;;;;;;;;;;7330559;19;154804;-17
2022/05/24 01:46:02;;;;;;;2.05;0.98;;;;;;;;;;7329097;19;153629;-16
2022/05/24 01:48:37;;;;;;;1.63;0.90;;;;;;;;;;7328787;19;162009;-17
2022/05/24 01:51:10;;;;;;;1.83;0.90;;;;;;;;;;7329737;19;162556;-17
2022/05/24 01:53:44;;;;;;;1.98;1.15;;;;;;;;;;7330257;19;154020;-17
2022/05/24 01:56:42;;;;;;;1.75;1.13;;;;;;;;;;7325962;19;153746;-17
2022/05/24 01:59:17;;;;;;;2.10;1.05;;;;;;;;;;7329661;19;161891;-17
2022/05/24 02:01:51;;;;;;;0.77;0.77;;;;;;;;;;7329440;19;162579;-16
2022/05/24 02:04:23;;;;;;;1.77;0.90;;;;;;;;;;7329652;19;154066;-17
2022/05/24 02:07:02;;;;;;;1.92;1.10;;;;;;;;;;7329711;19;153576;-17
2022/05/24 02:09:37;;;;;;;4.18;0.98;;;;;;;;;;7327940;19;161908;-17
2022/05/24 02:12:12;;;;;;;1.10;0.70;;;;;;;;;;7329100;19;162449;-18
2022/05/24 02:14:50;;;;;;;1.25;1.10;;;;;;;;;;7329306;19;154032;-17
2022/05/24 02:17:25;;;;;;;1.10;0.73;;;;;;;;;;7329550;19;153537;-20
2022/05/24 02:20:00;;;;;;;1.55;0.88;;;;;;;;;;7329048;19;162016;-19
2022/05/24 02:22:32;;;;;;;0.65;0.65;;;;;;;;;;7328971;19;162597;-18
2022/05/24 02:25:09;;;;;;;1.45;0.93;;;;;;;;;;7328063;19;154077;-17
2022/05/24 02:27:43;;;;;;;1.05;1.00;;;;;;;;;;7329310;19;153542;-18
2022/05/24 02:30:20;;;;;;;2.25;1.17;;;;;;;;;;7328819;19;161762;-17
2022/05/24 02:32:52;;;;;;;1.50;0.80;;;;;;;;;;7327548;19;162706;-17
2022/05/24 02:35:25;;;;;;;3.72;1.08;;;;;;;;;;7326956;19;154120;-17
2022/05/24 02:37:57;;;;;;;1.92;0.90;;;;;;;;;;7328877;19;153462;-18
2022/05/24 02:43:12;;;;;;;1.13;1.02;;;;;;;;;;7328267;19;162704;-17
2022/05/24 02:45:46;;;;;;;1.08;0.98;;;;;;;;;;7327420;19;154116;-18
2022/05/24 02:48:17;;;;;;;0.88;0.68;;;;;;;;;;7328323;19;153543;-17
2022/05/24 02:50:49;;;;;;;0.85;0.85;;;;;;;;;;7328033;19;161945;-17
2022/05/24 02:53:20;;;;;;;1.95;0.90;;;;;;;;;;7327848;19;162602;-17
2022/05/24 02:55:51;;;;;;;1.10;0.93;;;;;;;;;;7327273;19;154018;-18
2022/05/24 02:58:22;;;;;;;0.85;0.85;;;;;;;;;;7328205;19;153619;-17
2022/05/24 03:00:56;;;;;;;1.67;1.00;;;;;;;;;;7327690;19;161957;-17
2022/05/24 03:03:28;;;;;;;1.63;1.00;;;;;;;;;;7327757;19;162423;-17
2022/05/24 03:05:59;;;;;;;0.95;0.80;;;;;;;;;;7326652;19;154193;-18
2022/05/24 03:11:14;;;;;;;2.53;1.25;;;;;;;;;;7325466;19;161962;-17
2022/05/24 03:16:33;;;;;;;1.17;0.73;;;;;;;;;;7325136;19;154187;-17
2022/05/24 03:19:05;;;;;;;0.70;0.60;;;;;;;;;;7327570;19;153692;-17
2022/05/24 03:21:36;;;;;;;0.83;0.60;;;;;;;;;;7328405;19;162212;-18
2022/05/24 03:24:08;;;;;;;0.80;0.80;;;;;;;;;;7334109;19;162304;-18
2022/05/24 03:26:40;;;;;;;0.70;0.70;;;;;;;;;;7337584;19;153999;-17
2022/05/24 03:29:11;;;;;;;0.80;0.80;;;;;;;;;;7334218;19;153537;-26
2022/05/24 03:31:45;;;;;;;1.15;0.82;;;;;;;;;;7334079;19;161837;-22
2022/05/24 03:34:16;;;;;;;1.35;0.80;;;;;;;;;;7333679;19;162424;-18
2022/05/24 03:36:48;;;;;;;1.15;0.85;;;;;;;;;;7332508;19;154384;-17
2022/05/24 03:39:20;;;;;;;1.15;0.80;;;;;;;;;;7334118;19;153508;-18
2022/05/24 03:41:51;;;;;;;1.77;1.20;;;;;;;;;;7333600;19;161788;-17
2022/05/24 03:44:22;;;;;;;0.70;0.70;;;;;;;;;;7333679;19;162564;-17
2022/05/24 03:46:58;;;;;;;1.50;0.77;;;;;;;;;;7334078;19;154082;-18
2022/05/24 03:49:29;;;;;;;1.50;0.95;;;;;;;;;;7333782;19;153620;-18
2022/05/24 03:52:00;;;;;;;0.70;0.65;;;;;;;;;;7333260;19;161967;-18
2022/05/24 03:54:32;;;;;;;0.95;0.82;;;;;;;;;;7333378;19;162352;-17
2022/05/24 03:59:47;;;;;;;1.90;0.80;;;;;;;;;;7333542;19;153666;-17
2022/05/24 04:02:21;;;;;;;0.93;0.70;;;;;;;;;;7333170;19;161976;-18
2022/05/24 04:04:52;;;;;;;0.63;0.63;;;;;;;;;;7333109;19;162434;-17
2022/05/24 04:07:24;;;;;;;0.90;0.90;;;;;;;;;;7333570;19;154145;-17
2022/05/24 04:09:56;;;;;;;1.25;0.95;;;;;;;;;;7332725;19;153664;-18
2022/05/24 04:12:27;;;;;;;1.58;1.02;;;;;;;;;;7332903;19;162127;-17
2022/05/24 04:14:58;;;;;;;1.08;0.80;;;;;;;;;;7332782;19;162472;-17
2022/05/24 04:17:32;;;;;;;0.82;0.60;;;;;;;;;;7331493;19;154008;-18
2022/05/24 04:20:03;;;;;;;2.15;0.90;;;;;;;;;;7333064;19;153716;-18
2022/05/24 04:22:35;;;;;;;1.05;0.75;;;;;;;;;;7332861;19;162141;-17
2022/05/24 04:25:08;;;;;;;2.50;0.90;;;;;;;;;;7332784;19;162569;-17
2022/05/24 04:27:40;;;;;;;0.57;0.57;;;;;;;;;;7332772;19;154105;-17
2022/05/24 04:30:14;;;;;;;0.50;0.50;;;;;;;;;;7332653;19;153551;-17
2022/05/24 04:32:48;;;;;;;2.75;0.85;;;;;;;;;;7331895;19;161869;-17
2022/05/24 04:35:20;;;;;;;0.73;0.73;;;;;;;;;;7332311;19;162360;-17
2022/05/24 04:37:51;;;;;;;0.75;0.75;;;;;;;;;;7330536;19;154199;-18
2022/05/24 04:42:18;;;;;;;1.65;1.08;;;;;;;;;;7332393;19;153503;-17
2022/05/24 04:43:15;;;;;;;1.38;0.70;;;;;;;;;;7330898;19;162696;-17
2022/05/24 04:45:47;;;;;;;1.65;0.75;;;;;;;;;;7331886;19;162605;-17
2022/05/24 04:48:22;;;;;;;;;;;;;;;;;;7333185;19;154189;-18
2022/05/24 04:50:55;;;;;;;1.08;0.80;;;;;;;;;;7332213;19;153339;-18
2022/05/24 04:53:28;;;;;;;1.10;0.90;;;;;;;;;;7331704;19;161939;-18
2022/05/24 04:55:59;;;;;;;0.95;0.65;;;;;;;;;;7331800;19;163023;-18
2022/05/24 04:58:31;;;;;;;0.80;0.80;;;;;;;;;;7329743;19;154013;-18
2022/05/24 05:01:02;;;;;;;0.98;0.80;;;;;;;;;;7331856;19;153580;-19
2022/05/24 05:03:36;;;;;;;0.80;0.80;;;;;;;;;;7331433;19;161926;-18
2022/05/24 05:06:10;;;;;;;1.38;0.60;;;;;;;;;;7330279;19;162556;-18
2022/05/24 05:08:42;;;;;;;1.05;0.73;;;;;;;;;;7331800;19;154051;-18
2022/05/24 05:11:13;;;;;;;1.27;0.70;;;;;;;;;;7329396;19;153530;-19
2022/05/24 05:13:44;;;;;;;1.17;1.00;;;;;;;;;;7331265;19;161841;-19
2022/05/24 05:16:16;;;;;;;1.10;0.98;;;;;;;;;;7331093;19;162660;-20
2022/05/24 05:18:50;;;;;;;1.02;0.88;;;;;;;;;;7329014;19;154024;-18
2022/05/24 05:21:21;;;;;;;0.70;0.70;;;;;;;;;;7331162;19;153665;-19
2022/05/24 05:23:53;;;;;;;1.10;0.98;;;;;;;;;;7332085;19;161995;-18
2022/05/24 05:26:24;;;;;;;0.80;0.80;;;;;;;;;;7330671;19;162527;-17
2022/05/24 05:28:56;;;;;;;0.50;0.50;;;;;;;;;;7333983;19;154025;-17
2022/05/24 05:31:26;;;;;;;0.85;0.65;;;;;;;;;;7330711;19;153552;-17
2022/05/24 05:34:02;;;;;;;1.23;0.57;;;;;;;;;;7330564;19;161852;-16
2022/05/24 05:36:35;;;;;;;2.00;1.40;;;;;;;;;;7330380;19;162716;-17
2022/05/24 05:39:06;;;;;;;4.32;2.10;;;;;;;;;;7328090;19;154183;-17
2022/05/24 05:41:38;;;;;;;7.07;2.38;;;;;;;;;;7330622;19;153593;-17
2022/05/24 05:44:10;;;;;;;6.70;1.95;;;;;;;;;;7328687;19;162009;-19
2022/05/24 05:46:41;;;;;;;5.63;2.03;;;;;;;;;;7330157;19;162558;-19
2022/05/24 05:49:15;;;;;;;4.32;1.90;;;;;;;;;;7330555;19;154194;-17
2022/05/24 05:51:47;;;;;;;5.18;2.28;;;;;;;;;;7330125;19;153584;-17
2022/05/24 05:54:19;;;;;;;2.60;1.40;;;;;;;;;;7330658;19;161815;-27
2022/05/24 05:56:51;;;;;;;3.55;1.80;;;;;;;;;;7329605;19;162620;-18
2022/05/24 05:59:22;;;;;;;4.93;1.70;;;;;;;;;;7324563;19;154322;-17
2022/05/24 06:01:58;;;;;;;3.13;1.52;;;;;;;;;;7327748;19;153515;-18
2022/05/24 06:04:33;;;;;;;4.90;1.65;;;;;;;;;;7329331;19;162074;-18
2022/05/24 06:07:04;;;;;;;5.25;1.92;;;;;;;;;;7329289;19;162736;-17
2022/05/24 06:09:35;;;;;;;3.80;1.60;;;;;;;;;;7329341;19;154041;-17
2022/05/24 06:12:08;;;;;;;3.50;1.60;;;;;;;;;;7329509;19;153768;-18
2022/05/24 06:14:39;;;;;;;3.40;1.48;;;;;;;;;;7328994;19;161980;-18
2022/05/24 06:17:26;;;;;;;3.00;1.55;;;;;;;;;;7327437;19;162510;-19
2022/05/24 06:20:01;;;;;;;3.97;2.13;;;;;;;;;;7329235;19;154108;-17
2022/05/24 06:22:32;;;;;;;2.17;1.48;;;;;;;;;;7327653;19;153874;-18
2022/05/24 06:25:03;;;;;;;3.10;1.52;;;;;;;;;;7327311;19;161835;-18
2022/05/24 06:27:35;;;;;;;4.07;2.05;;;;;;;;;;7328460;19;162325;-18
2022/05/24 06:30:08;;;;;;;3.38;1.60;;;;;;;;;;7329092;19;154093;-18
2022/05/24 06:32:39;;;;;;;2.90;1.65;;;;;;;;;;7328674;19;153788;-23
2022/05/24 06:35:16;;;;;;;2.78;1.60;;;;;;;;;;7328488;19;161814;-17
2022/05/24 06:37:48;;;;;;;1.80;1.20;;;;;;;;;;7328108;19;162683;-17
2022/05/24 06:40:21;;;;;;;;;;;;;;;;;;7333036;19;154036;-18
2022/05/24 06:42:53;;;;;;;1.97;1.13;;;;;;;;;;7328564;19;153348;-17
2022/05/24 06:45:24;;;;;;;1.27;1.10;;;;;;;;;;7328165;19;162017;-17
2022/05/24 06:47:56;;;;;;;2.20;1.02;;;;;;;;;;7327997;19;162400;-18
2022/05/24 06:50:30;;;;;;;3.33;1.65;;;;;;;;;;7328573;19;154047;-18
2022/05/24 06:53:01;;;;;;;2.63;1.17;;;;;;;;;;7328389;19;153529;-17
2022/05/24 06:55:33;;;;;;;1.48;1.10;;;;;;;;;;7327696;19;161897;-17
2022/05/24 06:58:04;;;;;;;2.78;1.60;;;;;;;;;;7332830;19;162601;-17
2022/05/24 07:03:20;;;;;;;2.25;1.20;;;;;;;;;;7334767;19;153813;-18
2022/05/24 07:05:55;;;;;;;2.65;1.25;;;;;;;;;;7334448;19;161999;-17
2022/05/24 07:08:27;;;;;;;2.00;1.42;;;;;;;;;;7334408;19;162399;-17
2022/05/24 07:10:58;;;;;;;1.83;1.20;;;;;;;;;;7333327;19;154048;-17
2022/05/24 07:13:29;;;;;;;1.73;1.20;;;;;;;;;;7334695;19;153660;-17
2022/05/24 07:16:00;;;;;;;1.52;1.00;;;;;;;;;;7334452;19;161768;-17
2022/05/24 07:18:32;;;;;;;1.60;1.33;;;;;;;;;;7332133;19;162452;-17
2022/05/24 07:21:07;;;;;;;;;;;;;;;;;;7335673;19;154052;-18
2022/05/24 07:23:39;;;;;;;2.15;1.10;;;;;;;;;;7333376;19;153320;-19
2022/05/24 07:26:14;;;;;;;1.67;0.95;;;;;;;;;;7333993;19;161765;-18
2022/05/24 07:28:55;;;;;;;3.47;1.20;;;;;;;;;;7333645;19;162325;-18
2022/05/24 07:31:26;;;;;;;2.70;1.20;;;;;;;;;;7332852;19;154047;-18
2022/05/24 07:33:59;;;;;;;3.17;1.20;;;;;;;;;;7334173;19;153582;-17
2022/05/24 07:36:33;;;;;;;;;;;;;;;;;;7334180;19;161831;-16
2022/05/24 07:39:05;;;;;;;3.65;1.13;;;;;;;;;;7337008;19;162721;-17
2022/05/24 07:47:09;;;;;;;1.70;0.90;;;;;;;;;;7333361;19;162130;-18
2022/05/24 07:49:41;;;;;;;1.73;1.17;;;;;;;;;;7333047;19;162523;-18
2022/05/24 07:52:15;;;;;;;1.65;1.30;;;;;;;;;;7333749;19;153911;-18
2022/05/24 07:54:46;;;;;;;3.85;0.95;;;;;;;;;;7333196;19;153949;-18
2022/05/24 07:57:18;;;;;;;1.42;1.05;;;;;;;;;;7332560;19;162015;-17
2022/05/24 07:59:52;;;;;;;2.03;1.20;;;;;;;;;;7330056;19;162435;-18
2022/05/24 08:02:25;;;;;;;1.92;1.08;;;;;;;;;;7333070;19;154164;-18
2022/05/24 08:04:57;;;;;;;1.95;1.17;;;;;;;;;;7333132;19;153737;-23
2022/05/24 08:07:31;;;;;;;1.20;0.80;;;;;;;;;;7331594;19;162173;-20
2022/05/24 08:10:02;;;;;;;1.60;0.90;;;;;;;;;;7331966;19;162526;-20
2022/05/24 08:12:35;;;;;;;1.92;1.20;;;;;;;;;;7333319;19;154041;-18
2022/05/24 08:15:08;;;;;;;3.15;0.82;;;;;;;;;;7332908;19;153495;-18
2022/05/24 08:17:40;;;;;;;1.17;1.00;;;;;;;;;;7331384;19;162087;-18
2022/05/24 08:20:15;;;;;;;1.35;0.90;;;;;;;;;;7330676;19;162878;-19
2022/05/24 08:22:49;;;;;;;1.65;1.00;;;;;;;;;;7332772;19;154165;-16
2022/05/24 08:25:21;;;;;;;1.27;0.90;;;;;;;;;;7332652;19;154405;-17
2022/05/24 08:27:52;;;;;;;2.05;1.23;;;;;;;;;;7332059;19;161979;-17
2022/05/24 08:30:24;;;;;;;0.93;0.80;;;;;;;;;;7332061;19;162912;-18
2022/05/24 08:32:56;;;;;;;1.90;1.15;;;;;;;;;;7332319;19;154068;-18
2022/05/24 08:35:28;;;;;;;2.42;1.13;;;;;;;;;;7332359;19;153620;-19
2022/05/24 08:38:01;;;;;;;1.05;0.93;;;;;;;;;;7331713;19;161804;-19
2022/05/24 08:40:33;;;;;;;0.85;0.85;;;;;;;;;;7329890;19;162585;-19
2022/05/24 08:43:25;;;;;;;1.25;1.02;;;;;;;;;;7332305;19;154014;-19
2022/05/24 08:48:51;;;;;;;1.83;1.10;;;;;;;;;;7331591;19;161970;-19
2022/05/24 08:51:27;;;;;;;0.93;0.90;;;;;;;;;;7331587;19;162336;-18
2022/05/24 08:54:06;;;;;;;1.05;0.80;;;;;;;;;;7331745;19;153998;-18
2022/05/24 08:56:41;;;;;;;1.27;0.90;;;;;;;;;;7332127;19;153667;-19
2022/05/24 08:59:18;;;;;;;0.55;0.55;;;;;;;;;;7331183;19;161956;-18
2022/05/24 09:01:51;;;;;;;1.48;0.90;;;;;;;;;;7331130;19;162397;-18
2022/05/24 09:04:22;;;;;;;1.23;0.90;;;;;;;;;;7331669;19;154140;-18
2022/05/24 09:07:00;;;;;;;1.52;0.93;;;;;;;;;;7331464;19;153457;-18
2022/05/24 09:09:54;;;;;;;1.55;1.00;;;;;;;;;;7331400;19;161875;-18
2022/05/24 09:12:37;;;;;;;1.50;0.88;;;;;;;;;;7330052;19;162649;-18
2022/05/24 09:15:17;;;;;;;1.50;0.93;;;;;;;;;;7331341;19;154150;-18
2022/05/24 09:18:09;;;;;;;0.80;0.80;;;;;;;;;;7331061;19;132611;-18
2022/05/24 09:20:44;;;;;;;0.70;0.70;;;;;;;;;;7326998;19;161800;-18
2022/05/24 09:23:21;;;;;;;0.93;0.75;;;;;;;;;;7330714;19;162379;-18
2022/05/24 09:26:00;;;;;;;2.05;0.90;;;;;;;;;;7331275;19;154114;-18
2022/05/24 09:28:50;;;;;;;1.77;0.90;;;;;;;;;;7331046;19;153726;-18
2022/05/24 09:31:26;;;;;;;1.25;0.80;;;;;;;;;;7330615;19;161998;-18
2022/05/24 09:34:01;;;;;;;1.02;0.90;;;;;;;;;;7330467;19;163139;-18
2022/05/24 09:36:36;;;;;;;1.08;0.95;;;;;;;;;;7331608;19;154496;-17
2022/05/24 09:39:22;;;;;;;1.38;0.75;;;;;;;;;;7333969;19;153511;-18
2022/05/24 09:42:02;;;;;;;3.45;1.33;;;;;;;;;;7326305;19;162311;-18
2022/05/24 09:44:50;;;;;;;2.30;1.23;;;;;;;;;;7330110;19;162418;-19
2022/05/24 09:47:25;;;;;;;2.28;1.00;;;;;;;;;;7330500;19;154025;-18
2022/05/24 09:49:57;;;;;;;0.98;0.90;;;;;;;;;;7330390;19;153571;-19
2022/05/24 09:52:28;;;;;;;2.80;0.83;;;;;;;;;;7329888;19;161829;-19
2022/05/24 09:55:01;;;;;;;1.02;1.02;;;;;;;;;;7329911;19;162476;-19
2022/05/24 09:57:36;;;;;;;1.20;0.90;;;;;;;;;;7330035;19;153810;-18
2022/05/24 10:00:20;;;;;;;1.92;0.90;;;;;;;;;;7329677;19;153504;-19
2022/05/24 10:02:51;;;;;;;1.05;0.88;;;;;;;;;;7329521;19;161800;-19
2022/05/24 10:05:25;;;;;;;2.22;0.80;;;;;;;;;;7328390;19;163633;-17
2022/05/24 10:07:59;;;;;;;1.38;0.90;;;;;;;;;;7329858;19;154029;-17
2022/05/24 10:10:35;;;;;;;1.70;0.93;;;;;;;;;;7327239;19;153510;-17
2022/05/24 10:13:17;;;;;;;1.65;1.13;;;;;;;;;;7329269;19;161831;-17
2022/05/24 10:15:52;;;;;;;;;;;;;;;;;;7329816;19;162203;-16
2022/05/24 10:18:39;;;;;;;1.48;0.90;;;;;;;;;;7329540;19;154432;-17
2022/05/24 10:21:20;;;;;;;1.77;0.90;;;;;;;;;;7328111;19;153721;-17
2022/05/24 10:23:58;;;;;;;1.55;0.80;;;;;;;;;;7328929;19;161879;-17
2022/05/24 10:26:41;;;;;;;1.23;0.80;;;;;;;;;;7328882;19;162554;-17
2022/05/24 10:29:24;;;;;;;2.72;0.77;;;;;;;;;;7330680;19;154032;-17
2022/05/24 10:31:59;;;;;;;1.98;0.88;;;;;;;;;;7333834;19;153405;-16
2022/05/24 10:40:27;;;;;;;3.53;1.38;;;;;;;;;;7335623;19;154018;-17
2022/05/24 10:43:21;;;;;;;1.23;0.60;;;;;;;;;;7335495;19;153652;-16
2022/05/24 10:46:01;;;;;;;2.65;0.80;;;;;;;;;;7337252;19;161726;-17
2022/05/24 10:48:37;;;;;;;1.23;1.00;;;;;;;;;;7334750;19;162356;-18
2022/05/24 10:51:16;;;;;;;1.08;1.00;;;;;;;;;;7335316;19;154290;-17
2022/05/24 10:53:52;;;;;;;1.65;0.90;;;;;;;;;;7335207;19;153751;-17
2022/05/24 10:56:33;;;;;;;1.63;0.90;;;;;;;;;;7334874;19;161956;-17
2022/05/24 10:59:14;;;;;;;1.35;0.90;;;;;;;;;;7334579;19;162428;-26
2022/05/24 11:01:55;;;;;;;2.00;0.73;;;;;;;;;;7332524;19;154044;-26
2022/05/24 11:04:38;;;;;;;1.65;0.73;;;;;;;;;;7336545;19;153539;-26
2022/05/24 11:07:14;;;;;;;2.00;0.80;;;;;;;;;;7334774;19;162227;-18
2022/05/24 11:09:55;;;;;;;1.15;1.00;;;;;;;;;;7333745;19;162678;-18
2022/05/24 11:12:31;;;;;;;;;;;;;;;;;;7335366;19;154009;-17
2022/05/24 11:15:06;;;;;;;1.70;0.80;;;;;;;;;;7333818;19;153451;-18
2022/05/24 11:17:40;;;;;;;2.15;1.00;;;;;;;;;;7334437;19;161988;-17
2022/05/24 11:20:14;;;;;;;1.30;1.08;;;;;;;;;;7334066;19;162465;-17
2022/05/24 11:22:52;;;;;;;1.90;0.90;;;;;;;;;;7332366;19;154315;-17
2022/05/24 11:25:27;;;;;;;1.90;1.00;;;;;;;;;;7334154;19;153796;-18
2022/05/24 11:28:20;;;;;;;1.17;1.08;;;;;;;;;;7333968;19;162072;-17
2022/05/24 11:30:52;;;;;;;1.90;1.20;;;;;;;;;;7334069;19;162616;-17
2022/05/24 11:33:42;;;;;;;1.27;0.80;;;;;;;;;;7334269;19;154632;-17
2022/05/24 11:36:39;;;;;;;0.93;0.90;;;;;;;;;;7333915;19;153502;-17
2022/05/24 11:39:17;;;;;;;1.38;1.00;;;;;;;;;;7333348;19;162017;-17
2022/05/24 11:41:49;;;;;;;1.85;1.08;;;;;;;;;;7331966;19;162308;-17
2022/05/24 11:44:37;;;;;;;0.93;0.90;;;;;;;;;;7333218;19;154440;-17
2022/05/24 11:47:09;;;;;;;5.43;1.20;;;;;;;;;;7333651;19;153533;-17
2022/05/24 11:50:11;;;;;;;3.75;0.80;;;;;;;;;;7333207;19;161870;-17
2022/05/24 11:53:06;;;;;;;2.28;1.20;;;;;;;;;;7332894;19;162367;-17
2022/05/24 11:55:52;;;;;;;5.45;1.20;;;;;;;;;;7333645;19;154102;-17
2022/05/24 11:58:42;;;;;;;1.40;1.02;;;;;;;;;;7333434;19;153570;-17
2022/05/24 12:01:34;;;;;;;3.13;1.13;;;;;;;;;;7331754;19;161841;-17
2022/05/24 12:10:52;;;;;;;1.33;1.05;;;;;;;;;;7329764;19;153570;-17
2022/05/24 12:13:57;;;;;;;2.13;1.00;;;;;;;;;;7332740;19;161818;-17
2022/05/24 12:16:42;;;;;;;3.78;1.20;;;;;;;;;;7331284;19;162693;-17
2022/05/24 12:19:35;;;;;;;1.33;0.80;;;;;;;;;;7332947;19;154075;-17
2022/05/24 12:22:09;;;;;;;2.20;1.10;;;;;;;;;;7332583;19;153578;-17
2022/05/24 12:24:53;;;;;;;1.92;1.00;;;;;;;;;;7332231;19;162060;-17
2022/05/24 12:27:44;;;;;;;1.85;0.88;;;;;;;;;;7332239;19;162618;-18
2022/05/24 12:30:48;;;;;;;3.65;1.10;;;;;;;;;;7332623;19;153782;-17
2022/05/24 12:33:28;;;;;;;2.80;1.20;;;;;;;;;;7332661;19;153496;-18
2022/05/24 12:36:11;;;;;;;2.30;1.00;;;;;;;;;;7331866;19;161833;-18
2022/05/24 12:38:42;;;;;;;2.70;1.13;;;;;;;;;;7332005;19;162577;-18
2022/05/24 12:41:18;;;;;;;2.05;0.93;;;;;;;;;;7331980;19;154049;-18
2022/05/24 12:43:59;;;;;;;5.13;1.20;;;;;;;;;;7329489;19;153534;-18
2022/05/24 12:46:35;;;;;;;32.35;13.18;;;;;;;;;;7330164;19;161999;-18
2022/05/24 12:49:10;;;;;;;23.85;8.20;;;;;;;;;;7330216;19;162333;-18
2022/05/24 12:51:41;;;;;;;19.55;8.95;;;;;;;;;;7331914;19;154038;-18
2022/05/24 12:54:16;;;;;;;13.52;4.50;;;;;;;;;;7331603;19;153621;-18
2022/05/24 12:56:59;;;;;;;9.77;3.88;;;;;;;;;;7331412;19;161885;-18
2022/05/24 12:59:40;;;;;;;7.45;3.55;;;;;;;;;;7331503;19;162349;-17
2022/05/24 13:02:28;;;;;;;6.88;3.65;;;;;;;;;;7330910;19;154117;-19
2022/05/24 13:05:04;;;;;;;7.60;3.38;;;;;;;;;;7331469;19;153541;-18
2022/05/24 13:07:41;;;;;;;9.52;3.47;;;;;;;;;;7329932;19;162049;-18
2022/05/24 13:10:17;;;;;;;8.98;3.83;;;;;;;;;;7330036;19;162389;-18
2022/05/24 13:12:49;;;;;;;8.30;3.88;;;;;;;;;;7331257;19;153841;-18
2022/05/24 13:15:25;;;;;;;6.93;3.65;;;;;;;;;;7329891;19;153728;-18
2022/05/24 13:18:03;;;;;;;9.95;3.60;;;;;;;;;;7329585;19;161871;-18
2022/05/24 13:20:37;;;;;;;8.32;4.05;;;;;;;;;;7330885;19;162484;-18
2022/05/24 13:23:21;;;;;;;9.23;3.75;;;;;;;;;;7329724;19;154056;-18
2022/05/24 13:25:55;;;;;;;7.10;3.65;;;;;;;;;;7330909;19;153684;-18
2022/05/24 13:28:41;;;;;;;7.85;3.00;;;;;;;;;;7330493;19;162061;-18
2022/05/24 13:34:04;;;;;;;9.18;3.53;;;;;;;;;;7330669;19;154041;-18
2022/05/24 13:36:44;;;;;;;6.80;3.08;;;;;;;;;;7330643;19;153862;-18
2022/05/24 13:39:23;;;;;;;10.57;3.63;;;;;;;;;;7330222;19;161941;-20
2022/05/24 13:42:02;;;;;;;7.82;3.40;;;;;;;;;;7328932;19;162418;-18
2022/05/24 13:45:10;;;;;;;7.88;2.88;;;;;;;;;;7330347;19;154004;-18
2022/05/24 13:47:47;;;;;;;4.28;3.08;;;;;;;;;;7330218;19;153606;-18
2022/05/24 13:50:36;;;;;;;7.13;3.63;;;;;;;;;;7329659;19;162250;-16
2022/05/24 13:53:10;;;;;;;7.95;3.88;;;;;;;;;;7328543;19;162740;-18
2022/05/24 13:55:43;;;;;;;7.85;3.10;;;;;;;;;;7329819;19;154124;-19
2022/05/24 13:58:33;;;;;;;6.20;3.55;;;;;;;;;;7329779;19;153569;-17
2022/05/24 14:01:07;;;;;;;8.88;3.00;;;;;;;;;;7331996;19;161952;-18
2022/05/24 14:03:53;;;;;;;10.02;3.63;;;;;;;;;;7328060;19;162383;-18
2022/05/24 14:06:27;;;;;;;7.85;3.50;;;;;;;;;;7327930;19;154031;-17
2022/05/24 14:09:00;;;;;;;7.85;3.47;;;;;;;;;;7329365;19;153558;-16
2022/05/24 14:11:34;;;;;;;7.85;3.70;;;;;;;;;;7326532;19;161850;-17
2022/05/24 14:14:05;;;;;;;7.82;3.58;;;;;;;;;;7329101;19;162360;-17
2022/05/24 14:16:38;;;;;;;8.25;3.33;;;;;;;;;;7328000;19;154115;-17
2022/05/24 14:19:12;;;;;;;6.78;3.88;;;;;;;;;;7328894;19;153631;-18
2022/05/24 14:21:44;;;;;;;6.30;3.30;;;;;;;;;;7328642;19;163203;-17
2022/05/24 14:24:18;;;;;;;8.13;3.43;;;;;;;;;;7326799;19;162331;-18
2022/05/24 14:26:53;;;;;;;6.78;3.67;;;;;;;;;;7329046;19;154266;-19
2022/05/24 14:29:25;;;;;;;7.05;3.45;;;;;;;;;;7327746;19;153644;-20
2022/05/24 14:31:57;;;;;;;7.72;3.67;;;;;;;;;;7328554;19;161944;-18
2022/05/24 14:34:31;;;;;;;8.07;4.15;;;;;;;;;;7328444;19;162600;-18
2022/05/24 14:37:03;;;;;;;5.90;3.47;;;;;;;;;;7328725;19;154025;-17
2022/05/24 14:39:34;;;;;;;7.63;2.90;;;;;;;;;;7328595;19;153853;-17
2022/05/24 14:42:06;;;;;;;7.03;3.65;;;;;;;;;;7327960;19;162139;-16
2022/05/24 14:44:38;;;;;;;6.95;3.10;;;;;;;;;;7326041;19;162356;-17
2022/05/24 14:47:09;;;;;;;14.82;3.38;;;;;;;;;;7328460;19;154185;-17
2022/05/24 14:49:44;;;;;;;15.75;7.05;;;;;;;;;;7324829;19;154389;-16
2022/05/24 14:52:18;;;;;;;11.35;4.05;;;;;;;;;;7330415;19;162021;-16
2022/05/24 14:54:53;;;;;;;5.80;3.88;;;;;;;;;;7329073;19;162529;-17
2022/05/24 14:57:25;;;;;;;10.10;3.90;;;;;;;;;;7329540;19;154200;-17
2022/05/24 14:59:56;;;;;;;8.57;4.07;;;;;;;;;;7331455;19;154057;-16
2022/05/24 15:02:27;;;;;;;6.85;3.90;;;;;;;;;;7330692;19;161909;-17
2022/05/24 15:05:01;;;;;;;6.45;3.75;;;;;;;;;;7324277;19;162568;-17
2022/05/24 15:15:45;;;;;;;6.43;3.25;;;;;;;;;;7325658;19;162581;-19
2022/05/24 15:18:17;;;;;;;6.63;3.42;;;;;;;;;;7330325;19;154150;-19
2022/05/24 15:20:52;;;;;;;9.68;3.80;;;;;;;;;;7333795;19;153679;-18
2022/05/24 15:23:29;;;;;;;9.68;3.70;;;;;;;;;;7333889;19;161856;-19
2022/05/24 15:26:06;;;;;;;15.27;4.00;;;;;;;;;;7338090;19;162405;-18
2022/05/24 15:28:43;;;;;;;5.88;3.33;;;;;;;;;;7333930;19;154056;-19
2022/05/24 15:31:15;;;;;;;9.23;3.50;;;;;;;;;;7333848;19;153614;-19
2022/05/24 15:33:49;;;;;;;9.25;3.88;;;;;;;;;;7333134;19;161885;-19
2022/05/24 15:36:23;;;;;;;6.65;3.72;;;;;;;;;;7333190;19;162452;-19
2022/05/24 15:38:55;;;;;;;8.82;3.92;;;;;;;;;;7335372;19;154353;-19
2022/05/24 15:41:27;;;;;;;6.32;3.40;;;;;;;;;;7332481;19;153602;-19
2022/05/24 15:43:59;;;;;;;9.80;3.92;;;;;;;;;;7332852;19;161822;-20
2022/05/24 15:46:34;;;;;;;6.80;2.72;;;;;;;;;;7333201;19;162597;-18
2022/05/24 15:49:06;;;;;;;7.05;3.88;;;;;;;;;;7333656;19;154050;-19
2022/05/24 15:51:40;;;;;;;7.30;3.75;;;;;;;;;;7333680;19;153608;-18
2022/05/24 15:54:11;;;;;;;7.22;3.65;;;;;;;;;;7333269;19;161912;-19
2022/05/24 15:56:43;;;;;;;5.80;3.65;;;;;;;;;;7332530;19;162478;-18
2022/05/24 15:59:14;;;;;;;6.22;3.53;;;;;;;;;;7333051;19;154286;-19
2022/05/24 16:01:46;;;;;;;5.78;3.28;;;;;;;;;;7336073;19;153595;-19
2022/05/24 16:10:02;;;;;;;7.43;3.20;;;;;;;;;;7332153;19;161961;-18
2022/05/24 16:10:07;;;;;;;8.02;3.67;;;;;;;;;;7336876;19;154236;-18
2022/05/24 16:12:45;;;;;;;6.30;3.50;;;;;;;;;;7332822;19;153597;-17
2022/05/24 16:15:20;;;;;;;7.75;3.53;;;;;;;;;;7334364;19;162099;-19
2022/05/24 16:17:54;;;;;;;12.25;3.72;;;;;;;;;;7332950;19;162508;-18